Thunder radar more information blitzortung!


Radar de pluja more information rain snow radar


Visita la nostra xarxa de llocs de meteo:

Template documentation
and downloads

And another site



No particular awareness of the weather is required.    There are no Weather-warnings

Pagina Historial Weather Underground text

Diari Resum Juliol 27, 2017 Unitats:  Mètric    Imperial   Tant
« Previous Dia
SegĂźent Dia »
Diari Setmana Mensual Anual Personalitzada
  Maxima: Minima: Media:
Temperatura: 33.3 °C 18.0 °C 27.4 °C
Punt de rosada: 19.3 °C 14.0 °C 17.6 °C
Humitat: 83 % 42 % 57 %
Wind Speed: 18.5 km/h 0.0 km/h 6 km/h
RĂ fegues de vent: 18.5 km/h - -
Vent:- - SSW
Pression baro: 1013.8 hPa 1009.0 hPa -
Precipitacions: 0.0 mm    
Historical Graphs
 
 
Dades de taula per Juliol 27, 2017
Temps Temperatura Punt de rosada Pression baro Vent Wind Speed RĂ fegues de vent Humitat Rainfall Rate (Hourly)
00:01 21.7 °C 14.3 °C 1013.8 hPa NE 1.9 km/h 1.9 km/h 63 % 0.0 mm
00:05 18.7 °C 14.4 °C 1013.8 hPa Calm     76 % 0.0 mm
00:15 18.4 °C 14.1 °C 1013.8 hPa Calm   3.2 km/h 76 % 0.0 mm
00:25 18.4 °C 14.1 °C 1013.8 hPa Calm     76 % 0.0 mm
00:35 18.4 °C 14.3 °C 1013.8 hPa SW 1.6 km/h 1.6 km/h 77 % 0.0 mm
00:45 18.2 °C 14.1 °C 1013.8 hPa Calm   1.6 km/h 77 % 0.0 mm
00:55 18.1 °C 14.0 °C 1013.8 hPa Calm   1.6 km/h 77 % 0.0 mm
01:05 18.1 °C 14.2 °C 1013.8 hPa SSW 1.6 km/h 1.6 km/h 78 % 0.0 mm
01:15 18.0 °C 14.1 °C 1013.8 hPa Calm     78 % 0.0 mm
01:25 18.0 °C 14.1 °C 1013.8 hPa Calm     78 % 0.0 mm
01:35 18.0 °C 14.1 °C 1013.8 hPa Calm     78 % 0.0 mm
01:45 18.0 °C 14.1 °C 1013.8 hPa Calm     78 % 0.0 mm
01:55 18.0 °C 14.1 °C 1013.8 hPa Calm     78 % 0.0 mm
02:05 18.1 °C 14.4 °C 1013.8 hPa Calm     79 % 0.0 mm
02:15 18.4 °C 14.7 °C 1013.8 hPa Calm     79 % 0.0 mm
02:25 18.6 °C 14.7 °C 1013.8 hPa Calm   3.2 km/h 78 % 0.0 mm
02:35 18.6 °C 14.7 °C 1013.8 hPa SSW 1.6 km/h 3.2 km/h 78 % 0.0 mm
02:45 18.8 °C 14.9 °C 1013.8 hPa SW 1.6 km/h 3.2 km/h 78 % 0.0 mm
02:55 18.6 °C 14.7 °C 1013.8 hPa Calm   3.2 km/h 78 % 0.0 mm
03:05 18.9 °C 15.0 °C 1013.8 hPa WSW 1.6 km/h 3.2 km/h 78 % 0.0 mm
03:15 19.1 °C 14.8 °C 1013.8 hPa WSW 1.6 km/h 3.2 km/h 76 % 0.0 mm
03:25 19.6 °C 15.3 °C 1012.8 hPa Calm   3.2 km/h 76 % 0.0 mm
03:35 20.3 °C 15.5 °C 1013.8 hPa South 1.6 km/h 3.2 km/h 74 % 0.0 mm
03:45 21.1 °C 15.8 °C 1013.8 hPa ENE 1.6 km/h 3.2 km/h 72 % 0.0 mm
03:55 21.6 °C 15.9 °C 1013.8 hPa NE 1.6 km/h 3.2 km/h 70 % 0.0 mm
04:05 22.0 °C 15.8 °C 1013.8 hPa ENE 3.2 km/h 3.2 km/h 68 % 0.0 mm
04:15 22.9 °C 16.4 °C 1013.8 hPa ENE 1.6 km/h 1.6 km/h 67 % 0.0 mm
04:25 23.4 °C 16.7 °C 1013.8 hPa Calm   1.6 km/h 66 % 0.0 mm
04:35 23.5 °C 16.6 °C 1013.8 hPa ENE 1.6 km/h 4.8 km/h 65 % 0.0 mm
04:45 24.0 °C 16.5 °C 1013.8 hPa SE 1.6 km/h 4.8 km/h 63 % 0.0 mm
04:55 24.2 °C 16.4 °C 1013.8 hPa SSE 1.6 km/h 4.8 km/h 62 % 0.0 mm
05:05 24.8 °C 17.3 °C 1013.8 hPa ESE 1.6 km/h 4.8 km/h 63 % 0.0 mm
05:15 24.3 °C 16.3 °C 1013.8 hPa East 4.8 km/h 8.0 km/h 61 % 0.0 mm
05:25 24.8 °C 16.8 °C 1012.8 hPa SE 3.2 km/h 4.8 km/h 61 % 0.0 mm
10:25 25.2 °C 16.6 °C 1012.8 hPa SSE 7.4 km/h 7.4 km/h 59 % 0.0 mm
10:30 25.8 °C 17.2 °C 1012.8 hPa SE 3.9 km/h   59 % 0.0 mm
10:35 25.4 °C 16.8 °C 1012.8 hPa ESE 5.6 km/h 5.6 km/h 59 % 0.0 mm
10:40 26.0 °C 17.4 °C 1012.8 hPa ESE 1.9 km/h 2.3 km/h 59 % 0.0 mm
10:45 26.1 °C 17.2 °C 1012.8 hPa SSW 5.6 km/h 5.6 km/h 58 % 0.0 mm
10:50 26.6 °C 17.4 °C 1013.8 hPa SW 2.3 km/h 2.3 km/h 57 % 0.0 mm
10:55 26.9 °C 17.4 °C 1013.8 hPa NE 9.3 km/h 9.3 km/h 56 % 0.0 mm
11:00 26.6 °C 17.1 °C 1013.8 hPa East 5.8 km/h 5.8 km/h 56 % 0.0 mm
11:05 26.4 °C 16.9 °C 1013.8 hPa NW 3.7 km/h 3.7 km/h 56 % 0.0 mm
11:06 26.4 °C 16.9 °C 1013.8 hPa NW 3.7 km/h 3.7 km/h 56 % 0.0 mm
11:11 26.9 °C 17.4 °C 1013.8 hPa SW 6.9 km/h 6.9 km/h 56 % 0.0 mm
11:16 27.0 °C 16.9 °C 1013.8 hPa NNW 9.3 km/h 9.3 km/h 54 % 0.0 mm
11:21 27.5 °C 17.1 °C 1013.8 hPa SSE 3.7 km/h 3.7 km/h 53 % 0.0 mm
11:26 27.9 °C 17.1 °C 1013.8 hPa SW 7.4 km/h 7.4 km/h 52 % 0.0 mm
11:31 28.6 °C 17.8 °C 1013.8 hPa WSW 4.7 km/h 4.7 km/h 52 % 0.0 mm
11:36 28.2 °C 17.1 °C 1012.8 hPa South 3.7 km/h 3.7 km/h 51 % 0.0 mm
11:41 27.9 °C 16.8 °C 1012.8 hPa SW 9.5 km/h 9.5 km/h 51 % 0.0 mm
11:46 28.9 °C 17.4 °C 1012.8 hPa SW 3.7 km/h 3.7 km/h 50 % 0.0 mm
11:51 29.0 °C 17.2 °C 1012.8 hPa WSW 9.3 km/h 9.3 km/h 49 % 0.0 mm
11:56 29.7 °C 17.5 °C 1012.8 hPa SW 11.9 km/h 11.9 km/h 48 % 0.0 mm
12:01 29.9 °C 17.4 °C 1012.8 hPa WSW 3.7 km/h 3.7 km/h 47 % 0.0 mm
12:06 30.3 °C 17.7 °C 1012.8 hPa SSW 5.6 km/h 5.6 km/h 47 % 0.0 mm
12:11 29.7 °C 17.2 °C 1012.8 hPa WNW 13.0 km/h 13.0 km/h 47 % 0.0 mm
12:16 29.4 °C 16.6 °C 1012.8 hPa SW 7.6 km/h 7.6 km/h 46 % 0.0 mm
12:21 29.5 °C 16.7 °C 1012.8 hPa South 11.1 km/h 11.1 km/h 46 % 0.0 mm
12:26 29.7 °C 16.8 °C 1012.8 hPa South 9.5 km/h 9.5 km/h 46 % 0.0 mm
12:31 30.4 °C 17.1 °C 1012.8 hPa SSW 11.1 km/h 11.1 km/h 45 % 0.0 mm
12:36 30.6 °C 17.3 °C 1012.8 hPa SW 5.8 km/h 5.8 km/h 45 % 0.0 mm
12:41 30.8 °C 17.5 °C 1012.8 hPa SSE 7.4 km/h 7.4 km/h 45 % 0.0 mm
12:46 30.7 °C 17.1 °C 1012.8 hPa WSW 13.0 km/h 13.0 km/h 44 % 0.0 mm
12:51 31.5 °C 17.8 °C 1011.7 hPa SW 9.3 km/h 9.3 km/h 44 % 0.0 mm
12:56 31.8 °C 18.1 °C 1011.7 hPa West 5.6 km/h 5.6 km/h 44 % 0.0 mm
13:01 31.6 °C 17.8 °C 1011.7 hPa SW 7.4 km/h 7.4 km/h 44 % 0.0 mm
13:06 31.9 °C 17.4 °C 1011.7 hPa SSE 6.1 km/h 6.1 km/h 42 % 0.0 mm
13:11 31.5 °C 17.1 °C 1011.7 hPa South 7.4 km/h 7.4 km/h 42 % 0.0 mm
13:16 31.7 °C 17.2 °C 1011.7 hPa NE 11.1 km/h 11.1 km/h 42 % 0.0 mm
13:21 31.9 °C 17.8 °C 1010.7 hPa SSW 3.7 km/h 3.7 km/h 43 % 0.0 mm
13:26 32.7 °C 18.5 °C 1010.7 hPa South 5.6 km/h 5.6 km/h 43 % 0.0 mm
13:31 33.3 °C 18.7 °C 1010.7 hPa SSE 6.9 km/h 6.9 km/h 42 % 0.0 mm
13:36 32.0 °C 17.8 °C 1011.7 hPa ESE 11.4 km/h 11.4 km/h 43 % 0.0 mm
13:41 31.6 °C 17.8 °C 1011.7 hPa WSW 13.0 km/h 13.0 km/h 44 % 0.0 mm
13:46 32.3 °C 18.5 °C 1011.7 hPa WNW 7.9 km/h 7.9 km/h 44 % 0.0 mm
13:51 32.9 °C 19.1 °C 1011.7 hPa SSW 10.0 km/h 10.0 km/h 44 % 0.0 mm
13:56 32.8 °C 18.6 °C 1011.7 hPa SSW 9.3 km/h 9.3 km/h 43 % 0.0 mm
14:01 33.0 °C 18.8 °C 1011.7 hPa SW 9.3 km/h 9.3 km/h 43 % 0.0 mm
14:06 32.6 °C 18.4 °C 1011.7 hPa SW 9.5 km/h 9.5 km/h 43 % 0.0 mm
14:11 32.2 °C 18.1 °C 1011.7 hPa SW 13.0 km/h 13.0 km/h 43 % 0.0 mm
14:16 32.0 °C 17.8 °C 1011.7 hPa SSW 13.0 km/h 13.0 km/h 43 % 0.0 mm
14:21 32.0 °C 18.2 °C 1011.7 hPa WSW 13.0 km/h 13.0 km/h 44 % 0.0 mm
14:26 32.7 °C 18.8 °C 1011.7 hPa SW 11.9 km/h 11.9 km/h 44 % 0.0 mm
14:31 31.8 °C 18.1 °C 1011.7 hPa SW 13.0 km/h 13.0 km/h 44 % 0.0 mm
14:36 32.2 °C 18.4 °C 1011.7 hPa WSW 14.8 km/h 14.8 km/h 44 % 0.0 mm
14:41 32.2 °C 18.4 °C 1011.7 hPa SSW 13.0 km/h 13.0 km/h 44 % 0.0 mm
14:46 32.9 °C 19.1 °C 1011.7 hPa WSW 9.3 km/h 9.3 km/h 44 % 0.0 mm
14:51 32.9 °C 19.1 °C 1011.7 hPa SSE 3.7 km/h 3.7 km/h 44 % 0.0 mm
14:56 33.0 °C 18.8 °C 1011.7 hPa WSW 9.3 km/h 9.3 km/h 43 % 0.0 mm
15:01 33.1 °C 19.2 °C 1011.7 hPa WNW 7.4 km/h 7.4 km/h 44 % 0.0 mm
15:06 33.0 °C 19.1 °C 1011.7 hPa WSW 15.6 km/h 15.6 km/h 44 % 0.0 mm
15:11 32.7 °C 18.8 °C 1011.7 hPa West 14.8 km/h 14.8 km/h 44 % 0.0 mm
15:16 32.8 °C 18.9 °C 1011.7 hPa SW 5.6 km/h 5.6 km/h 44 % 0.0 mm
15:21 33.1 °C 19.2 °C 1010.7 hPa SW 11.1 km/h 11.1 km/h 44 % 0.0 mm
15:26 32.8 °C 18.9 °C 1010.7 hPa SSW 9.3 km/h 9.3 km/h 44 % 0.0 mm
15:31 33.2 °C 18.9 °C 1010.7 hPa WSW 14.8 km/h 14.8 km/h 43 % 0.0 mm
15:36 32.7 °C 18.8 °C 1010.7 hPa South 14.8 km/h 14.8 km/h 44 % 0.0 mm
15:41 32.2 °C 18.4 °C 1010.7 hPa ESE 9.3 km/h 9.3 km/h 44 % 0.0 mm
15:46 32.7 °C 18.8 °C 1010.7 hPa SSW 11.1 km/h 11.1 km/h 44 % 0.0 mm
15:51 32.4 °C 18.9 °C 1010.7 hPa South 7.4 km/h 7.4 km/h 45 % 0.0 mm
15:56 32.4 °C 18.9 °C 1010.7 hPa SW 14.8 km/h 14.8 km/h 45 % 0.0 mm
16:01 32.5 °C 19.1 °C 1010.7 hPa SW 13.0 km/h 13.0 km/h 45 % 0.0 mm
16:06 32.1 °C 18.7 °C 1010.7 hPa SE 12.6 km/h 12.6 km/h 45 % 0.0 mm
16:11 32.5 °C 19.1 °C 1010.7 hPa SW 13.0 km/h 13.0 km/h 45 % 0.0 mm
16:16 32.4 °C 18.9 °C 1010.7 hPa SW 5.6 km/h 5.8 km/h 45 % 0.0 mm
16:21 32.3 °C 18.8 °C 1010.7 hPa SW 7.4 km/h 7.4 km/h 45 % 0.0 mm
16:26 32.5 °C 19.1 °C 1010.7 hPa SSW 11.1 km/h 11.1 km/h 45 % 0.0 mm
16:31 32.2 °C 18.8 °C 1010.7 hPa South 16.9 km/h 16.9 km/h 45 % 0.0 mm
16:36 32.2 °C 18.4 °C 1010.7 hPa West 8.7 km/h 8.7 km/h 44 % 0.0 mm
16:41 32.1 °C 18.3 °C 1010.7 hPa SSE 13.0 km/h 13.0 km/h 44 % 0.0 mm
16:46 32.3 °C 18.5 °C 1010.7 hPa SSE 14.8 km/h 14.8 km/h 44 % 0.0 mm
16:51 32.6 °C 18.4 °C 1010.7 hPa West 3.7 km/h 3.9 km/h 43 % 0.0 mm
16:56 32.7 °C 18.5 °C 1010.7 hPa SSW 9.3 km/h 9.3 km/h 43 % 0.0 mm
17:01 32.2 °C 18.1 °C 1010.7 hPa South 11.1 km/h 11.1 km/h 43 % 0.0 mm
17:06 32.6 °C 18.4 °C 1010.0 hPa SW 7.4 km/h 7.4 km/h 43 % 0.0 mm
17:11 32.4 °C 17.8 °C 1010.0 hPa SSW 10.0 km/h 10.0 km/h 42 % 0.0 mm
17:16 32.3 °C 17.8 °C 1010.0 hPa South 9.3 km/h 9.3 km/h 42 % 0.0 mm
17:21 32.8 °C 18.2 °C 1010.0 hPa South 9.3 km/h 9.3 km/h 42 % 0.0 mm
17:26 32.4 °C 17.8 °C 1010.0 hPa South 11.1 km/h 11.1 km/h 42 % 0.0 mm
17:31 32.3 °C 17.8 °C 1010.0 hPa SSW 7.4 km/h 7.4 km/h 42 % 0.0 mm
17:32 32.3 °C 17.8 °C 1010.0 hPa ESE 7.4 km/h 7.4 km/h 42 % 0.0 mm
17:37 32.4 °C 17.8 °C 1010.0 hPa SW 11.9 km/h 11.9 km/h 42 % 0.0 mm
17:42 32.2 °C 17.7 °C 1010.0 hPa South 7.4 km/h 7.4 km/h 42 % 0.0 mm
17:47 32.5 °C 18.3 °C 1010.0 hPa SW 7.4 km/h 7.4 km/h 43 % 0.0 mm
17:52 31.7 °C 17.6 °C 1010.0 hPa WSW 7.9 km/h 7.9 km/h 43 % 0.0 mm
17:57 31.6 °C 17.8 °C 1010.0 hPa SSE 9.3 km/h 9.3 km/h 44 % 0.0 mm
18:02 31.9 °C 18.1 °C 1010.0 hPa SW 12.6 km/h 12.6 km/h 44 % 0.0 mm
18:07 31.4 °C 17.7 °C 1010.0 hPa SSW 10.3 km/h 10.3 km/h 44 % 0.0 mm
18:12 31.4 °C 18.1 °C 1010.0 hPa SW 11.1 km/h 11.1 km/h 45 % 0.0 mm
18:17 31.3 °C 17.9 °C 1010.0 hPa South 7.4 km/h 7.4 km/h 45 % 0.0 mm
18:22 31.1 °C 17.8 °C 1010.0 hPa SW 13.0 km/h 13.0 km/h 45 % 0.0 mm
18:27 31.0 °C 17.7 °C 1010.0 hPa South 18.5 km/h 18.5 km/h 45 % 0.0 mm
18:32 30.7 °C 17.8 °C 1010.0 hPa SSW 14.8 km/h 14.8 km/h 46 % 0.0 mm
18:37 30.7 °C 17.8 °C 1010.0 hPa SW 13.0 km/h 13.0 km/h 46 % 0.0 mm
18:42 30.6 °C 17.7 °C 1010.0 hPa SE 9.7 km/h 9.7 km/h 46 % 0.0 mm
18:47 30.6 °C 17.7 °C 1010.0 hPa South 13.0 km/h 13.0 km/h 46 % 0.0 mm
18:52 30.2 °C 17.3 °C 1010.0 hPa SW 13.0 km/h 13.0 km/h 46 % 0.0 mm
18:57 30.4 °C 17.5 °C 1010.0 hPa SSW 11.1 km/h 11.1 km/h 46 % 0.0 mm
19:02 30.3 °C 17.4 °C 1010.0 hPa WSW 11.1 km/h 11.1 km/h 46 % 0.0 mm
19:07 30.3 °C 17.4 °C 1010.0 hPa South 13.0 km/h 13.0 km/h 46 % 0.0 mm
19:12 30.4 °C 17.5 °C 1010.0 hPa SSW 9.3 km/h 9.3 km/h 46 % 0.0 mm
19:17 30.3 °C 17.4 °C 1010.0 hPa SSW 13.0 km/h 13.0 km/h 46 % 0.0 mm
19:22 30.0 °C 17.1 °C 1010.0 hPa South 7.4 km/h 7.4 km/h 46 % 0.0 mm
19:27 29.9 °C 17.4 °C 1010.0 hPa South 7.4 km/h 7.4 km/h 47 % 0.0 mm
19:32 29.8 °C 17.3 °C 1010.0 hPa SSW 7.9 km/h 7.9 km/h 47 % 0.0 mm
19:37 29.6 °C 17.1 °C 1010.0 hPa SW 7.4 km/h 7.4 km/h 47 % 0.0 mm
19:42 29.5 °C 17.0 °C 1010.0 hPa WSW 7.4 km/h 7.4 km/h 47 % 0.0 mm
19:47 29.4 °C 16.9 °C 1010.0 hPa SSW 7.4 km/h 7.4 km/h 47 % 0.0 mm
19:52 29.3 °C 16.8 °C 1010.0 hPa SW 5.6 km/h 5.6 km/h 47 % 0.0 mm
19:57 29.2 °C 16.7 °C 1010.0 hPa SW 10.0 km/h 10.0 km/h 47 % 0.0 mm
20:02 28.9 °C 17.1 °C 1010.0 hPa SW 6.9 km/h 6.9 km/h 49 % 0.0 mm
20:07 28.7 °C 17.2 °C 1009.0 hPa West 9.3 km/h 9.3 km/h 50 % 0.0 mm
20:12 28.6 °C 17.2 °C 1009.0 hPa SW 5.6 km/h 5.6 km/h 50 % 0.0 mm
20:17 28.6 °C 17.4 °C 1009.0 hPa SSW 9.3 km/h 9.3 km/h 51 % 0.0 mm
20:22 28.4 °C 17.3 °C 1009.0 hPa SSW 7.4 km/h 7.4 km/h 51 % 0.0 mm
20:27 28.3 °C 17.5 °C 1009.0 hPa SW 7.6 km/h   52 % 0.0 mm
20:32 28.2 °C 17.7 °C 1009.0 hPa WSW 3.7 km/h 3.9 km/h 53 % 0.0 mm
20:33 28.2 °C 17.7 °C 1009.0 hPa WSW 3.7 km/h 3.9 km/h 53 % 0.0 mm
20:35 23.3 °C 19.1 °C 1013.8 hPa Calm   1.6 km/h 77 % 0.0 mm
20:38 28.1 °C 17.6 °C 1010.0 hPa SSW 5.6 km/h 5.6 km/h 53 % 0.0 mm
20:43 28.0 °C 17.8 °C 1010.0 hPa SSW 5.0 km/h 5.0 km/h 54 % 0.0 mm
20:45 23.2 °C 19.2 °C 1013.8 hPa NNE 3.2 km/h 4.8 km/h 78 % 0.0 mm
20:48 27.7 °C 17.6 °C 1010.0 hPa WSW 5.6 km/h 5.6 km/h 54 % 0.0 mm
20:53 27.5 °C 17.7 °C 1010.0 hPa SW 3.7 km/h 3.7 km/h 55 % 0.0 mm
20:55 23.1 °C 19.1 °C 1013.8 hPa NE 1.6 km/h 3.2 km/h 78 % 0.0 mm
20:58 27.4 °C 17.8 °C 1010.0 hPa SW 5.6 km/h 5.6 km/h 56 % 0.0 mm
21:03 27.2 °C 17.7 °C 1010.0 hPa West 11.1 km/h 11.1 km/h 56 % 0.0 mm
21:05 23.0 °C 19.2 °C 1013.8 hPa Calm   1.6 km/h 79 % 0.0 mm
21:08 27.1 °C 17.8 °C 1010.0 hPa SSW 7.4 km/h 7.4 km/h 57 % 0.0 mm
21:13 26.9 °C 17.9 °C 1010.0 hPa SW 5.6 km/h 5.6 km/h 58 % 0.0 mm
21:15 22.9 °C 19.3 °C 1013.8 hPa Calm   1.6 km/h 80 % 0.0 mm
21:18 26.8 °C 17.8 °C 1010.0 hPa SW 7.4 km/h 7.4 km/h 58 % 0.0 mm
21:23 26.7 °C 17.8 °C 1010.0 hPa SW 5.6 km/h 5.8 km/h 58 % 0.0 mm
21:25 22.8 °C 18.9 °C 1013.8 hPa NE 1.6 km/h 1.6 km/h 79 % 0.0 mm
21:28 26.5 °C 17.8 °C 1010.0 hPa SSW 5.3 km/h 5.3 km/h 59 % 0.0 mm
21:33 26.4 °C 17.7 °C 1010.0 hPa SW 5.6 km/h 5.6 km/h 59 % 0.0 mm
21:35 22.7 °C 18.9 °C 1013.8 hPa Calm   1.6 km/h 79 % 0.0 mm
21:38 26.2 °C 17.6 °C 1010.7 hPa SW 5.6 km/h 5.6 km/h 59 % 0.0 mm
21:43 26.1 °C 17.7 °C 1010.7 hPa WSW 3.7 km/h 3.7 km/h 60 % 0.0 mm
21:45 22.5 °C 18.9 °C 1013.8 hPa Calm   1.6 km/h 80 % 0.0 mm
21:48 26.0 °C 17.6 °C 1010.7 hPa SW 3.7 km/h 3.7 km/h 60 % 0.0 mm
21:53 26.0 °C 17.6 °C 1010.7 hPa SW 3.7 km/h 3.7 km/h 60 % 0.0 mm
21:55 22.4 °C 18.8 °C 1012.8 hPa Calm     80 % 0.0 mm
21:58 25.9 °C 17.8 °C 1010.7 hPa WSW 1.9 km/h 2.3 km/h 61 % 0.0 mm
22:03 25.9 °C 17.8 °C 1010.7 hPa SW 3.7 km/h 3.7 km/h 61 % 0.0 mm
22:05 22.4 °C 19.0 °C 1013.8 hPa Calm     81 % 0.0 mm
22:08 25.8 °C 17.7 °C 1011.7 hPa WSW 3.7 km/h 3.7 km/h 61 % 0.0 mm
22:13 25.6 °C 17.8 °C 1011.7 hPa SW 3.5 km/h   62 % 0.0 mm
22:15 22.4 °C 19.0 °C 1013.8 hPa Calm   1.6 km/h 81 % 0.0 mm
22:18 25.6 °C 17.8 °C 1011.7 hPa SW 3.7 km/h 3.7 km/h 62 % 0.0 mm
22:23 25.5 °C 17.7 °C 1011.7 hPa SW 3.7 km/h 3.7 km/h 62 % 0.0 mm
22:25 22.3 °C 18.9 °C 1013.8 hPa Calm     81 % 0.0 mm
22:28 25.5 °C 17.7 °C 1011.7 hPa SW 2.3 km/h 2.3 km/h 62 % 0.0 mm
22:33 25.4 °C 17.6 °C 1011.7 hPa SW 3.7 km/h 3.7 km/h 62 % 0.0 mm
22:35 22.2 °C 19.0 °C 1013.8 hPa Calm     82 % 0.0 mm
22:38 25.2 °C 17.7 °C 1012.8 hPa SW 3.7 km/h 3.7 km/h 63 % 0.0 mm
22:43 25.1 °C 17.6 °C 1012.8 hPa SW 1.9 km/h 1.9 km/h 63 % 0.0 mm
22:45 22.2 °C 19.0 °C 1013.8 hPa Calm   1.6 km/h 82 % 0.0 mm
22:48 25.1 °C 17.8 °C 1012.8 hPa SSW 3.7 km/h 3.7 km/h 64 % 0.0 mm
22:53 24.9 °C 18.1 °C 1010.7 hPa Calm     66 % 0.0 mm
22:55 22.2 °C 19.0 °C 1013.8 hPa Calm   1.6 km/h 82 % 0.0 mm
22:58 24.9 °C 18.1 °C 1010.7 hPa WSW 1.9 km/h   66 % 0.0 mm
23:03 24.9 °C 18.1 °C 1010.7 hPa WSW 4.7 km/h 4.7 km/h 66 % 0.0 mm
23:05 22.1 °C 18.9 °C 1013.8 hPa Calm     82 % 0.0 mm
23:08 24.8 °C 18.0 °C 1011.7 hPa WSW 5.6 km/h 5.6 km/h 66 % 0.0 mm
23:13 24.7 °C 18.2 °C 1011.7 hPa SW 1.9 km/h 1.9 km/h 67 % 0.0 mm
23:15 22.1 °C 18.9 °C 1013.8 hPa Calm     82 % 0.0 mm
23:18 24.7 °C 18.4 °C 1011.7 hPa SW 1.9 km/h   68 % 0.0 mm
23:23 24.6 °C 18.6 °C 1011.7 hPa Calm     69 % 0.0 mm
23:25 22.1 °C 19.1 °C 1013.8 hPa Calm     83 % 0.0 mm
23:28 24.5 °C 18.4 °C 1011.7 hPa Calm     69 % 0.0 mm
23:33 24.5 °C 18.7 °C 1011.7 hPa NNE 1.9 km/h   70 % 0.0 mm
23:35 22.0 °C 19.0 °C 1012.8 hPa NE 1.6 km/h 3.2 km/h 83 % 0.0 mm
23:38 24.4 °C 18.8 °C 1012.8 hPa Calm     71 % 0.0 mm
23:43 24.3 °C 18.7 °C 1012.8 hPa Calm     71 % 0.0 mm
23:45 21.9 °C 18.9 °C 1012.8 hPa Calm     83 % 0.0 mm
23:48 24.3 °C 18.9 °C 1012.8 hPa NNW 1.9 km/h   72 % 0.0 mm
23:53 24.3 °C 19.2 °C 1012.8 hPa Calm     73 % 0.0 mm
23:55 21.7 °C 18.7 °C 1012.8 hPa Calm     83 % 0.0 mm
23:58 24.3 °C 19.2 °C 1012.8 hPa Calm     73 % 0.0 mm
Meteo Sesrovires
Elogis d' Weather Underground - 3.75 mb

Guio original per  Jim McMurry - jmcmurry@mwt.net Adaptat per a la plantilla per  Wim van der Kuil - Leuven-Template.eu

Trobareu la nostra informacio del temps tambe a:

Weather Underground

AWEKAS